Time;durP1;ratioP1;P1;durP2;ratioP2;P2;SDS_P1;SDS_P2;PMS_P1;PMS_P2;Temp;Humidity;BMP_temperature;BMP_pressure;BME280_temperature;BME280_humidity;BME280_pressure;Samples;Min_cycle;Max_cycle;Signal;HPM_P1;HPM_P2
2021/01/17 00:00:52;;;;;;;18.03;12.23;;;3.80;99.90;;;;;;4985177;28;20178;-87
2021/01/17 00:06:39;;;;;;;15.80;12.10;;;3.80;99.90;;;;;;4992230;28;20154;-89
2021/01/17 00:09:05;;;;;;;16.53;12.80;;;3.80;99.90;;;;;;4982857;28;20202;-88
2021/01/17 00:11:31;;;;;;;14.13;11.13;;;3.80;99.90;;;;;;5000848;28;20188;-89
2021/01/17 00:13:56;;;;;;;16.90;11.97;;;3.80;99.90;;;;;;4982265;28;20593;-88
2021/01/17 00:16:22;;;;;;;13.73;10.97;;;3.70;99.90;;;;;;4982069;28;20182;-89
2021/01/17 00:18:48;;;;;;;16.47;13.23;;;3.80;99.90;;;;;;4981147;28;20626;-88
2021/01/17 00:21:13;;;;;;;15.80;12.93;;;3.80;99.90;;;;;;4980994;28;20228;-89
2021/01/17 00:23:39;;;;;;;15.33;12.60;;;3.90;99.90;;;;;;4987634;28;20255;-88
2021/01/17 00:26:05;;;;;;;14.10;12.60;;;4.00;99.90;;;;;;4980046;28;20170;-88
2021/01/17 00:28:30;;;;;;;17.93;13.50;;;4.00;99.90;;;;;;4978920;28;20256;-88
2021/01/17 00:30:56;;;;;;;19.27;13.90;;;4.00;99.90;;;;;;4980035;28;20196;-88
2021/01/17 00:33:21;;;;;;;21.30;13.87;;;4.10;99.90;;;;;;4979094;28;20228;-89
2021/01/17 00:35:47;;;;;;;17.73;13.57;;;4.10;99.90;;;;;;4963554;28;20217;-86
2021/01/17 00:38:13;;;;;;;24.50;14.83;;;4.20;99.90;;;;;;4979051;28;20209;-88
2021/01/17 00:40:38;;;;;;;20.23;15.00;;;4.20;99.90;;;;;;4979119;28;20301;-88
2021/01/17 00:43:04;;;;;;;21.73;14.83;;;4.20;99.90;;;;;;4978942;28;20235;-88
2021/01/17 00:45:30;;;;;;;22.13;14.77;;;4.10;99.90;;;;;;4996040;28;20205;-88
2021/01/17 00:47:56;;;;;;;21.70;14.97;;;4.10;99.90;;;;;;4996255;28;20295;-88
2021/01/17 00:50:22;;;;;;;23.50;16.00;;;4.10;99.90;;;;;;4978480;28;20181;-88
2021/01/17 00:52:53;;;;;;;21.63;15.13;;;4.10;99.90;;;;;;4996083;28;20511;-89
2021/01/17 00:55:19;;;;;;;24.23;15.90;;;4.20;99.90;;;;;;4978730;28;20188;-89
2021/01/17 00:57:44;;;;;;;21.70;15.10;;;4.20;99.90;;;;;;4978662;28;20181;-90
2021/01/17 01:00:12;;;;;;;23.17;15.23;;;4.20;99.90;;;;;;4978809;28;20177;-89
2021/01/17 01:02:39;;;;;;;19.20;14.47;;;4.20;99.90;;;;;;4995802;28;20191;-89
2021/01/17 01:05:06;;;;;;;22.37;15.73;;;4.20;99.90;;;;;;4996224;28;20180;-89
2021/01/17 01:07:32;;;;;;;21.33;14.90;;;4.20;99.90;;;;;;4977692;28;20185;-89
2021/01/17 01:09:57;;;;;;;25.83;15.43;;;4.30;99.90;;;;;;4976514;28;20178;-89
2021/01/17 01:12:23;;;;;;;19.17;14.47;;;4.40;99.90;;;;;;4927169;28;20182;-90
2021/01/17 01:14:49;;;;;;;18.90;14.10;;;4.50;99.90;;;;;;4977260;28;20175;-89
2021/01/17 01:17:14;;;;;;;22.43;16.07;;;4.50;99.90;;;;;;4978104;28;20190;-89
2021/01/17 01:19:40;;;;;;;22.13;14.67;;;4.50;99.90;;;;;;4978308;28;20186;-89
2021/01/17 01:22:06;;;;;;;20.70;14.90;;;4.50;99.90;;;;;;4961901;28;20189;-89
2021/01/17 01:24:32;;;;;;;20.53;14.40;;;4.50;99.90;;;;;;4978541;28;20182;-89
2021/01/17 01:26:58;;;;;;;17.67;14.03;;;4.60;99.90;;;;;;4978551;28;20216;-90
2021/01/17 01:29:24;;;;;;;22.67;14.80;;;4.50;99.90;;;;;;4978254;28;20661;-90
2021/01/17 01:31:50;;;;;;;20.90;14.57;;;4.50;99.90;;;;;;4978416;28;20201;-89
2021/01/17 01:34:16;;;;;;;19.60;15.00;;;4.50;99.90;;;;;;4979097;28;20264;-89
2021/01/17 01:36:43;;;;;;;19.33;14.07;;;4.50;99.90;;;;;;4983987;28;20254;-90
2021/01/17 01:39:09;;;;;;;21.23;15.20;;;4.50;99.90;;;;;;4958501;28;20643;-89
2021/01/17 01:41:37;;;;;;;22.10;15.07;;;4.50;99.90;;;;;;4942849;28;20244;-90
2021/01/17 01:44:04;;;;;;;18.57;14.73;;;4.50;99.90;;;;;;4975840;28;20186;-90
2021/01/17 01:46:31;;;;;;;22.53;15.47;;;4.50;99.90;;;;;;4959002;28;20229;-90
2021/01/17 01:49:00;;;;;;;25.93;14.97;;;4.60;99.90;;;;;;4959966;28;20622;-90
2021/01/17 01:51:26;;;;;;;23.83;15.50;;;4.60;99.90;;;;;;4960717;28;20217;-90
2021/01/17 01:53:54;;;;;;;28.63;17.23;;;4.70;99.90;;;;;;4961531;28;20185;-91
2021/01/17 01:56:21;;;;;;;23.40;15.53;;;4.70;99.90;;;;;;4970802;28;20224;-91
2021/01/17 01:58:47;;;;;;;22.83;15.37;;;4.70;99.90;;;;;;4977878;28;20189;-91
2021/01/17 02:01:13;;;;;;;23.03;15.57;;;4.80;99.90;;;;;;4978060;28;20188;-91
2021/01/17 02:03:44;;;;;;;22.77;14.60;;;4.80;99.90;;;;;;4977948;28;20177;-91
2021/01/17 02:06:13;;;;;;;22.33;14.67;;;4.80;99.90;;;;;;4978618;28;20264;-90
2021/01/17 02:09:04;;;;;;;23.37;15.30;;;4.80;99.90;;;;;;4978071;28;20256;-91
2021/01/17 02:11:36;;;;;;;27.53;17.33;;;4.70;99.90;;;;;;4977939;28;20178;-92
2021/01/17 02:14:38;;;;;;;24.93;16.50;;;4.70;99.90;;;;;;4977521;28;20644;-92
2021/01/17 02:17:12;;;;;;;27.60;16.47;;;4.60;99.90;;;;;;4979762;28;20169;-91
2021/01/17 02:20:06;;;;;;;28.17;15.67;;;4.60;99.90;;;;;;4962337;28;20272;-91
2021/01/17 02:22:43;;;;;;;28.90;16.80;;;4.60;99.90;;;;;;4979262;28;20277;-91
2021/01/17 02:25:09;;;;;;;28.80;17.30;;;4.70;99.90;;;;;;4964491;28;20766;-91
2021/01/17 02:27:38;;;;;;;29.60;17.77;;;4.70;99.90;;;;;;4981796;28;20178;-90
2021/01/17 02:30:07;;;;;;;25.90;16.93;;;4.70;99.90;;;;;;4981957;28;20193;-90
2021/01/17 02:32:37;;;;;;;27.43;17.63;;;4.70;99.90;;;;;;4983985;28;20177;-91
2021/01/17 02:35:04;;;;;;;26.53;16.60;;;4.70;99.90;;;;;;4994142;28;20260;-91
2021/01/17 02:37:52;;;;;;;28.57;17.93;;;4.70;99.90;;;;;;5002153;28;20193;-92
2021/01/17 02:40:33;;;;;;;32.20;17.93;;;4.70;99.90;;;;;;5013367;28;20193;-90
2021/01/17 02:43:01;;;;;;;26.50;17.23;;;4.90;99.90;;;;;;4999981;28;20201;-90
2021/01/17 02:45:26;;;;;;;28.30;17.23;;;4.90;99.90;;;;;;4958757;28;20186;-89
2021/01/17 02:47:53;;;;;;;34.60;18.60;;;4.90;99.90;;;;;;4947496;28;20221;-90
2021/01/17 02:50:18;;;;;;;27.60;17.20;;;5.00;99.90;;;;;;4982015;28;20183;-90
2021/01/17 02:53:06;;;;;;;30.50;17.50;;;5.10;99.90;;;;;;4970906;28;20193;-90
2021/01/17 02:55:37;;;;;;;35.97;19.97;;;5.00;99.90;;;;;;4984836;28;20200;-91
2021/01/17 02:58:04;;;;;;;36.00;20.17;;;5.00;99.90;;;;;;4986592;28;20181;-90
2021/01/17 03:00:33;;;;;;;40.03;20.70;;;5.10;99.90;;;;;;4952489;28;20281;-90
2021/01/17 03:03:00;;;;;;;31.13;19.13;;;5.20;99.90;;;;;;4991422;28;20179;-90
2021/01/17 03:05:26;;;;;;;33.80;18.47;;;5.20;99.90;;;;;;4984244;28;20185;-90
2021/01/17 03:07:54;;;;;;;40.37;20.73;;;5.10;99.90;;;;;;4982405;28;20208;-90
2021/01/17 03:10:21;;;;;;;36.53;19.57;;;5.10;99.90;;;;;;4966241;28;20189;-90
2021/01/17 03:12:47;;;;;;;40.30;18.77;;;5.10;99.90;;;;;;4982153;28;20189;-90
2021/01/17 03:15:14;;;;;;;41.20;21.20;;;5.10;99.90;;;;;;4981901;28;20177;-90
2021/01/17 03:17:40;;;;;;;53.87;22.13;;;5.20;99.90;;;;;;4981423;28;20178;-90
2021/01/17 03:20:07;;;;;;;40.43;21.07;;;5.30;99.90;;;;;;4981473;28;20192;-90
2021/01/17 03:22:33;;;;;;;43.73;20.33;;;5.30;99.90;;;;;;4981322;28;20309;-90
2021/01/17 03:24:59;;;;;;;46.07;20.90;;;5.20;99.90;;;;;;4997480;28;20231;-90
2021/01/17 03:27:25;;;;;;;38.70;19.80;;;5.30;99.90;;;;;;4981477;28;20634;-89
2021/01/17 03:29:50;;;;;;;44.17;20.40;;;5.20;99.90;;;;;;4965357;28;20252;-88
2021/01/17 03:32:16;;;;;;;49.70;22.47;;;5.20;99.90;;;;;;4965590;28;20189;-91
2021/01/17 03:34:48;;;;;;;52.17;22.93;;;5.20;99.90;;;;;;4981885;28;20193;-90
2021/01/17 03:37:19;;;;;;;45.90;22.50;;;5.30;99.90;;;;;;4966598;28;20534;-90
2021/01/17 03:39:45;;;;;;;46.53;21.63;;;5.30;99.90;;;;;;4981036;28;20228;-90
2021/01/17 03:42:11;;;;;;;44.17;21.83;;;5.30;99.90;;;;;;4981086;28;20178;-90
2021/01/17 03:44:41;;;;;;;42.47;23.57;;;5.30;99.90;;;;;;4997701;28;20170;-90
2021/01/17 03:47:08;;;;;;;45.17;23.53;;;5.30;99.90;;;;;;4985077;28;20216;-90
2021/01/17 03:49:34;;;;;;;45.63;24.33;;;5.20;99.90;;;;;;4981248;28;20209;-90
2021/01/17 03:51:59;;;;;;;43.17;23.13;;;5.30;99.90;;;;;;4998688;28;20196;-90
2021/01/17 03:54:25;;;;;;;44.80;22.63;;;5.30;99.90;;;;;;4980994;28;20186;-90
2021/01/17 03:56:51;;;;;;;55.23;23.33;;;5.40;99.90;;;;;;4981029;28;20177;-90
2021/01/17 03:59:16;;;;;;;49.47;23.13;;;5.40;99.90;;;;;;4998163;28;20224;-90
2021/01/17 04:01:46;;;;;;;38.43;22.37;;;5.50;99.90;;;;;;4998006;28;20185;-90
2021/01/17 04:04:11;;;;;;;48.93;22.27;;;5.60;99.90;;;;;;4967031;28;20181;-91
2021/01/17 04:06:37;;;;;;;44.63;22.50;;;5.60;99.90;;;;;;4967344;28;20328;-90
2021/01/17 04:09:05;;;;;;;45.13;23.17;;;5.60;99.90;;;;;;4980902;28;20276;-91
2021/01/17 04:11:30;;;;;;;43.40;22.17;;;5.60;99.90;;;;;;4980786;28;20197;-91
2021/01/17 04:13:56;;;;;;;40.80;22.07;;;5.60;99.90;;;;;;5000893;28;20181;-91
2021/01/17 04:16:22;;;;;;;43.37;21.57;;;5.60;99.90;;;;;;4976058;28;20173;-91
2021/01/17 04:18:48;;;;;;;48.17;21.73;;;5.70;99.90;;;;;;4980047;28;20189;-91
2021/01/17 04:21:13;;;;;;;40.60;20.90;;;5.70;99.90;;;;;;4998221;28;20627;-92
2021/01/17 04:23:39;;;;;;;47.40;19.87;;;5.70;99.90;;;;;;4981948;28;20201;-91
2021/01/17 04:26:05;;;;;;;36.50;19.40;;;5.80;99.90;;;;;;4983274;28;20185;-92
2021/01/17 04:28:31;;;;;;;39.87;17.37;;;5.80;99.90;;;;;;4983638;28;20209;-92
2021/01/17 04:30:57;;;;;;;40.83;16.50;;;5.90;99.90;;;;;;4982273;28;20189;-92
2021/01/17 04:33:22;;;;;;;29.57;15.90;;;5.90;99.90;;;;;;4982357;28;20256;-91
2021/01/17 04:35:50;;;;;;;28.00;14.67;;;6.00;99.90;;;;;;4988049;28;20165;-90
2021/01/17 04:38:16;;;;;;;40.27;15.10;;;6.10;99.90;;;;;;5019612;28;20165;-90
2021/01/17 04:40:42;;;;;;;36.23;14.53;;;6.00;99.90;;;;;;5002934;28;20197;-91
2021/01/17 04:43:38;;;;;;;31.57;15.27;;;6.10;99.90;;;;;;5002698;28;20189;-90
2021/01/17 04:46:04;;;;;;;29.43;14.43;;;6.10;99.90;;;;;;5007120;28;20181;-91
2021/01/17 04:48:30;;;;;;;30.57;14.60;;;6.10;99.90;;;;;;4985772;28;20210;-92
2021/01/17 04:51:04;;;;;;;29.57;14.77;;;6.10;99.90;;;;;;4964077;28;20214;-91
2021/01/17 04:53:33;;;;;;;31.27;14.20;;;6.10;99.90;;;;;;4980622;28;20197;-91
2021/01/17 04:56:26;;;;;;;34.87;13.77;;;6.10;99.90;;;;;;4979150;28;20619;-90
2021/01/17 04:59:14;;;;;;;44.33;12.67;;;6.10;99.90;;;;;;4970450;28;20232;-91
2021/01/17 05:01:48;;;;;;;22.17;11.43;;;6.10;99.90;;;;;;5001498;28;20173;-90
2021/01/17 05:04:36;;;;;;;22.00;12.70;;;6.10;99.90;;;;;;5018476;28;20195;-90
2021/01/17 05:07:09;;;;;;;26.03;11.43;;;6.10;99.90;;;;;;5014634;28;20323;-90
2021/01/17 05:09:43;;;;;;;36.50;12.03;;;6.10;99.90;;;;;;4984319;28;20206;-90
2021/01/17 05:12:13;;;;;;;24.40;11.80;;;6.20;99.90;;;;;;4981215;28;20192;-90
2021/01/17 05:14:46;;;;;;;25.07;10.43;;;6.20;99.90;;;;;;4980926;28;20225;-91
2021/01/17 05:17:20;;;;;;;28.33;11.27;;;6.30;99.90;;;;;;4980673;28;20641;-90
2021/01/17 05:19:47;;;;;;;29.57;10.23;;;6.40;99.90;;;;;;4989743;28;20185;-90
2021/01/17 05:22:14;;;;;;;21.97;10.20;;;6.40;99.90;;;;;;4998116;28;20193;-90
2021/01/17 05:24:45;;;;;;;19.40;9.70;;;6.40;99.90;;;;;;4983841;28;20178;-90
2021/01/17 05:27:11;;;;;;;23.03;10.47;;;6.40;99.90;;;;;;4960803;28;20174;-91
2021/01/17 05:29:37;;;;;;;26.80;9.63;;;6.40;99.90;;;;;;4945439;28;20213;-90
2021/01/17 05:32:08;;;;;;;22.70;9.67;;;6.40;99.90;;;;;;4959708;28;20221;-90
2021/01/17 05:34:34;;;;;;;28.90;10.03;;;6.30;99.90;;;;;;4959697;28;20599;-89
2021/01/17 05:37:05;;;;;;;28.13;10.13;;;6.40;99.90;;;;;;4943779;28;20193;-90
2021/01/17 05:39:35;;;;;;;27.10;10.20;;;6.40;99.90;;;;;;4983224;28;20253;-89
2021/01/17 05:42:09;;;;;;;25.47;10.77;;;6.50;99.90;;;;;;4996193;28;20174;-90
2021/01/17 05:44:35;;;;;;;29.10;10.03;;;6.50;99.90;;;;;;4967519;28;20185;-89
2021/01/17 05:47:05;;;;;;;32.37;11.03;;;6.40;99.90;;;;;;4958701;28;20202;-89
2021/01/17 05:49:31;;;;;;;36.93;11.10;;;6.50;99.90;;;;;;4959125;28;20217;-89
2021/01/17 05:52:14;;;;;;;43.67;11.87;;;6.60;99.90;;;;;;4962176;28;20193;-89
2021/01/17 05:54:41;;;;;;;34.43;11.27;;;6.60;99.90;;;;;;4979402;28;20177;-89
2021/01/17 05:57:18;;;;;;;27.83;11.63;;;6.50;99.90;;;;;;4978909;28;20192;-88
2021/01/17 05:59:44;;;;;;;32.00;11.20;;;6.50;99.90;;;;;;4978725;28;20181;-90
2021/01/17 06:02:20;;;;;;;21.93;11.17;;;6.50;99.90;;;;;;4978537;28;20630;-89
2021/01/17 06:04:53;;;;;;;24.73;10.13;;;6.40;99.90;;;;;;4978149;28;20235;-89
2021/01/17 06:07:21;;;;;;;31.70;11.17;;;6.40;99.90;;;;;;4978753;28;20181;-89
2021/01/17 06:09:54;;;;;;;36.97;11.20;;;6.40;99.90;;;;;;4978289;28;20304;-88
2021/01/17 06:12:38;;;;;;;23.33;10.13;;;6.40;99.90;;;;;;4979503;28;20180;-90
2021/01/17 06:15:10;;;;;;;26.80;10.40;;;6.40;99.90;;;;;;4978224;28;20209;-88
2021/01/17 06:17:45;;;;;;;24.93;10.60;;;6.50;99.90;;;;;;4977922;28;20630;-88
2021/01/17 06:20:19;;;;;;;22.13;10.20;;;6.40;99.90;;;;;;4977523;28;20280;-88
2021/01/17 06:22:47;;;;;;;32.87;11.07;;;6.40;99.90;;;;;;4986220;28;20206;-88
2021/01/17 06:25:14;;;;;;;28.93;11.57;;;6.30;99.90;;;;;;4971181;28;20183;-88
2021/01/17 06:27:39;;;;;;;25.87;10.97;;;6.30;99.90;;;;;;4977698;28;20185;-88
2021/01/17 06:30:18;;;;;;;28.63;11.50;;;6.30;99.90;;;;;;4961287;28;20182;-88
2021/01/17 06:32:46;;;;;;;28.87;11.33;;;6.30;99.90;;;;;;4975436;28;20170;-88
2021/01/17 06:35:12;;;;;;;27.07;10.57;;;6.40;99.90;;;;;;4971516;28;20186;-88
2021/01/17 06:37:37;;;;;;;37.07;11.43;;;6.40;99.90;;;;;;4977686;28;20184;-89
2021/01/17 06:40:07;;;;;;;23.63;11.70;;;6.40;99.90;;;;;;4978344;28;20611;-88
2021/01/17 06:42:33;;;;;;;27.83;10.67;;;6.40;99.90;;;;;;4996257;28;20209;-86
2021/01/17 06:44:59;;;;;;;34.30;11.63;;;6.30;99.90;;;;;;4977177;28;20186;-88
2021/01/17 06:47:27;;;;;;;36.40;12.00;;;6.30;99.90;;;;;;4977436;28;20182;-89
2021/01/17 06:49:55;;;;;;;42.20;11.00;;;6.40;99.90;;;;;;4978022;28;20237;-89
2021/01/17 06:52:21;;;;;;;40.77;11.37;;;6.50;99.90;;;;;;4980748;28;20292;-89
2021/01/17 06:54:52;;;;;;;30.53;10.37;;;6.50;99.90;;;;;;4987917;28;20213;-90
2021/01/17 06:57:21;;;;;;;21.83;9.07;;;6.50;99.90;;;;;;4944409;28;20269;-89
2021/01/17 06:59:48;;;;;;;28.73;9.70;;;6.50;99.90;;;;;;4962629;28;20198;-91
2021/01/17 07:02:13;;;;;;;23.27;9.10;;;6.50;99.90;;;;;;4981714;28;20193;-90
2021/01/17 07:04:41;;;;;;;24.63;8.50;;;6.50;99.90;;;;;;4982710;28;20177;-90
2021/01/17 07:07:31;;;;;;;19.57;8.27;;;6.50;99.90;;;;;;4966419;28;20216;-90
2021/01/17 07:10:05;;;;;;;29.07;7.53;;;6.40;99.90;;;;;;4981767;28;20269;-90
2021/01/17 07:12:53;;;;;;;24.40;7.07;;;6.50;99.90;;;;;;4983336;28;20192;-90
2021/01/17 07:15:39;;;;;;;31.97;7.93;;;6.50;99.90;;;;;;4981530;28;20272;-90
2021/01/17 07:18:08;;;;;;;26.83;6.73;;;6.50;99.90;;;;;;4982254;28;20231;-90
2021/01/17 07:20:39;;;;;;;24.50;7.17;;;6.50;99.90;;;;;;4984216;28;20184;-90
2021/01/17 07:23:07;;;;;;;22.93;6.93;;;6.60;99.90;;;;;;4985289;28;20251;-90
2021/01/17 07:25:34;;;;;;;28.50;7.43;;;6.50;99.90;;;;;;4981473;28;20182;-89
2021/01/17 07:28:30;;;;;;;21.77;7.43;;;6.50;99.90;;;;;;4981408;28;20205;-90
2021/01/17 07:30:59;;;;;;;18.67;6.70;;;6.50;99.90;;;;;;4983891;28;20176;-88
2021/01/17 07:33:36;;;;;;;24.30;7.23;;;6.50;99.90;;;;;;4979235;28;20182;-88
2021/01/17 07:36:12;;;;;;;27.13;7.33;;;6.50;99.90;;;;;;4970551;28;20594;-75
2021/01/17 07:38:45;;;;;;;23.87;8.53;;;6.50;99.90;;;;;;4977788;28;20599;-86
2021/01/17 07:41:13;;;;;;;25.60;7.63;;;6.50;99.90;;;;;;4983014;28;20163;-86
2021/01/17 07:43:44;;;;;;;29.60;6.93;;;6.50;99.90;;;;;;4961985;28;20190;-86
2021/01/17 07:46:15;;;;;;;22.83;7.47;;;6.60;99.90;;;;;;4963844;28;20206;-87
2021/01/17 07:48:42;;;;;;;23.00;7.30;;;6.60;99.90;;;;;;4993645;28;20206;-82
2021/01/17 07:51:09;;;;;;;24.10;7.73;;;6.60;99.90;;;;;;4972740;28;20178;-84
2021/01/17 07:53:38;;;;;;;22.73;8.13;;;6.70;99.90;;;;;;4962254;28;20220;-84
2021/01/17 07:56:16;;;;;;;26.30;7.53;;;6.70;99.90;;;;;;4959654;28;20209;-85
2021/01/17 07:58:50;;;;;;;29.60;7.37;;;6.70;99.90;;;;;;4959461;28;20178;-84
2021/01/17 08:01:42;;;;;;;23.50;7.80;;;6.70;99.90;;;;;;4944354;28;20192;-85
2021/01/17 08:04:10;;;;;;;23.53;6.77;;;6.70;99.90;;;;;;4976931;28;20695;-84
2021/01/17 08:06:35;;;;;;;20.00;6.50;;;6.70;99.90;;;;;;4979809;28;20262;-85
2021/01/17 08:09:02;;;;;;;22.70;7.67;;;6.60;99.90;;;;;;4978376;28;20296;-85
2021/01/17 08:12:05;;;;;;;20.73;6.43;;;6.70;99.90;;;;;;4978226;28;20181;-85
2021/01/17 08:14:40;;;;;;;21.47;6.57;;;6.80;99.90;;;;;;4995988;28;20526;-85
2021/01/17 08:17:11;;;;;;;24.87;8.33;;;6.80;99.90;;;;;;4995949;28;20173;-85
2021/01/17 08:19:40;;;;;;;21.50;7.77;;;6.90;99.90;;;;;;4978540;28;20279;-85
2021/01/17 08:22:18;;;;;;;24.87;7.57;;;7.00;99.90;;;;;;4963236;28;20254;-85
2021/01/17 08:24:54;;;;;;;21.10;7.40;;;7.00;99.90;;;;;;4975978;28;20177;-85
2021/01/17 08:27:31;;;;;;;21.37;7.60;;;6.90;99.90;;;;;;4943379;28;20637;-85
2021/01/17 08:30:03;;;;;;;17.27;7.40;;;6.80;99.90;;;;;;4977452;28;20279;-83
2021/01/17 08:32:35;;;;;;;20.37;8.00;;;6.80;99.90;;;;;;4995090;28;20189;-84
2021/01/17 08:35:13;;;;;;;19.63;7.13;;;6.80;99.90;;;;;;4995765;28;20189;-84
2021/01/17 08:37:42;;;;;;;24.87;7.93;;;6.80;99.90;;;;;;4977250;28;20185;-84
2021/01/17 08:40:09;;;;;;;26.33;9.00;;;6.90;99.90;;;;;;4978060;28;20182;-83
2021/01/17 08:42:47;;;;;;;26.30;9.23;;;6.90;99.90;;;;;;4978092;28;20174;-83
2021/01/17 08:45:22;;;;;;;22.23;8.63;;;7.00;99.90;;;;;;4976654;28;20185;-84
2021/01/17 08:47:55;;;;;;;23.07;9.53;;;7.00;99.90;;;;;;4983075;28;20272;-86
2021/01/17 08:50:31;;;;;;;37.27;9.50;;;7.10;99.90;;;;;;4983162;28;20347;-84
2021/01/17 08:53:23;;;;;;;36.90;9.70;;;7.20;99.90;;;;;;4977660;28;20193;-84
2021/01/17 08:55:50;;;;;;;31.80;9.70;;;7.20;99.90;;;;;;4976901;28;20189;-84
2021/01/17 08:58:35;;;;;;;37.07;10.27;;;7.30;99.90;;;;;;4977937;28;20196;-84
2021/01/17 09:01:04;;;;;;;30.13;10.13;;;7.20;99.90;;;;;;4979767;28;20189;-84
2021/01/17 09:03:30;;;;;;;24.80;9.10;;;7.20;99.90;;;;;;4964803;28;20197;-84
2021/01/17 09:05:59;;;;;;;56.17;11.10;;;7.20;99.90;;;;;;4968448;28;20193;-85
2021/01/17 09:08:26;;;;;;;29.10;9.80;;;7.20;99.90;;;;;;4977118;28;20232;-85
2021/01/17 09:10:52;;;;;;;23.47;8.10;;;7.20;99.90;;;;;;4995431;28;20182;-86
2021/01/17 09:13:18;;;;;;;25.40;8.30;;;7.20;99.90;;;;;;4976970;28;20190;-85
2021/01/17 09:16:02;;;;;;;28.57;8.43;;;7.20;99.90;;;;;;4975661;28;20193;-85
2021/01/17 09:18:33;;;;;;;23.13;7.33;;;7.30;99.90;;;;;;4975470;28;20189;-85
2021/01/17 09:21:00;;;;;;;27.53;7.30;;;7.30;99.90;;;;;;4973343;28;20187;-85
2021/01/17 09:23:26;;;;;;;23.70;6.93;;;7.40;99.90;;;;;;4976321;28;20201;-85
2021/01/17 09:26:00;;;;;;;38.13;7.67;;;7.40;99.90;;;;;;4974391;28;20548;-85
2021/01/17 09:28:27;;;;;;;29.03;8.40;;;7.50;99.90;;;;;;4967575;28;20670;-85
2021/01/17 09:30:57;;;;;;;31.43;6.77;;;7.60;99.90;;;;;;4986377;28;20193;-86
2021/01/17 09:33:25;;;;;;;31.30;6.90;;;7.70;99.90;;;;;;4971039;28;20256;-83
2021/01/17 09:35:51;;;;;;;26.03;6.60;;;7.80;99.90;;;;;;4978383;28;20177;-84
2021/01/17 09:38:19;;;;;;;22.50;6.77;;;7.90;99.90;;;;;;4991416;28;20546;-84
2021/01/17 09:40:48;;;;;;;17.07;5.30;;;7.90;99.90;;;;;;4976374;28;20190;-84
2021/01/17 09:43:16;;;;;;;31.30;6.50;;;8.00;99.90;;;;;;4992674;28;20616;-85
2021/01/17 09:45:53;;;;;;;38.93;6.73;;;8.00;99.90;;;;;;4975423;28;20194;-84
2021/01/17 09:48:22;;;;;;;29.10;6.93;;;8.20;99.90;;;;;;4975679;28;20209;-83
2021/01/17 09:50:50;;;;;;;34.07;6.77;;;8.30;99.90;;;;;;4975721;28;20627;-84
2021/01/17 09:53:16;;;;;;;27.20;6.40;;;8.50;99.90;;;;;;4988969;28;20193;-84
2021/01/17 09:55:44;;;;;;;24.98;6.47;;;8.50;99.90;;;;;;4976149;28;20189;-85
2021/01/17 09:58:12;;;;;;;26.83;6.22;;;8.60;99.90;;;;;;4994176;28;20201;-84
2021/01/17 10:00:39;;;;;;;32.60;6.85;;;8.50;99.90;;;;;;4990008;28;20185;-84
2021/01/17 10:03:13;;;;;;;29.87;6.83;;;8.60;99.90;;;;;;5007164;28;20196;-85
2021/01/17 10:05:41;;;;;;;26.93;6.83;;;8.60;99.90;;;;;;4976306;28;20185;-84
2021/01/17 10:08:09;;;;;;;29.33;6.10;;;8.60;99.90;;;;;;4976502;28;20209;-84
2021/01/17 10:10:36;;;;;;;31.37;5.83;;;8.60;99.90;;;;;;4975144;28;20276;-83
2021/01/17 10:13:02;;;;;;;20.60;5.30;;;8.70;99.90;;;;;;4976474;28;20214;-83
2021/01/17 10:15:28;;;;;;;26.95;6.03;;;8.80;99.90;;;;;;4978947;28;20182;-83
2021/01/17 10:17:54;;;;;;;26.98;6.03;;;8.90;99.90;;;;;;4985346;28;20181;-84
2021/01/17 10:20:30;;;;;;;27.17;5.75;;;9.00;99.90;;;;;;4999522;28;20242;-82
2021/01/17 10:23:03;;;;;;;27.27;5.77;;;9.00;99.90;;;;;;4991151;28;20197;-84
2021/01/17 10:25:30;;;;;;;28.90;6.40;;;9.00;99.90;;;;;;4970655;28;20225;-84
2021/01/17 10:28:04;;;;;;;21.15;6.70;;;9.00;99.90;;;;;;4955573;28;20262;-84
2021/01/17 10:30:32;;;;;;;29.75;6.25;;;9.00;99.90;;;;;;4972007;28;20272;-84
2021/01/17 10:33:10;;;;;;;29.88;6.50;;;9.00;99.90;;;;;;4972709;28;20710;-84
2021/01/17 10:35:44;;;;;;;21.20;6.25;;;9.10;99.90;;;;;;4960598;28;20205;-83
2021/01/17 10:38:11;;;;;;;32.07;7.03;;;9.20;99.90;;;;;;4959692;28;20247;-84
2021/01/17 10:40:38;;;;;;;34.17;7.75;;;9.20;99.90;;;;;;4956588;29;20218;-84
2021/01/17 10:43:07;;;;;;;39.70;6.78;;;9.30;99.90;;;;;;4950375;28;20182;-85
2021/01/17 10:45:33;;;;;;;29.48;7.78;;;9.50;99.90;;;;;;4976070;28;20291;-85
2021/01/17 10:48:15;;;;;;;17.27;6.05;;;9.60;99.90;;;;;;4959292;28;20261;-84
2021/01/17 10:51:00;;;;;;;42.30;7.15;;;9.70;99.90;;;;;;4973493;28;20260;-84
2021/01/17 10:53:33;;;;;;;23.13;6.65;;;9.80;99.90;;;;;;4982602;28;20189;-85
2021/01/17 10:55:59;;;;;;;32.17;6.97;;;10.10;99.90;;;;;;4979860;28;20201;-85
2021/01/17 10:58:41;;;;;;;29.77;7.88;;;10.10;99.90;;;;;;4979437;28;20180;-85
2021/01/17 11:01:07;;;;;;;33.20;7.07;;;10.10;99.90;;;;;;4996697;28;20239;-85
2021/01/17 11:03:35;;;;;;;34.92;9.65;;;10.00;99.90;;;;;;4979444;28;20185;-84
2021/01/17 11:06:22;;;;;;;30.55;8.35;;;10.00;99.90;;;;;;4974845;28;20170;-84
2021/01/17 11:08:57;;;;;;;39.97;8.95;;;9.80;99.90;;;;;;4979475;28;20217;-84
2021/01/17 11:11:29;;;;;;;36.00;8.38;;;9.60;99.90;;;;;;4979091;28;20181;-84
2021/01/17 11:14:05;;;;;;;32.72;9.05;;;9.40;99.90;;;;;;4958889;28;20362;-84
2021/01/17 11:16:51;;;;;;;33.10;8.55;;;9.20;99.90;;;;;;4945937;29;20186;-84
2021/01/17 11:19:17;;;;;;;44.90;9.15;;;9.00;99.90;;;;;;4955627;29;20210;-84
2021/01/17 11:21:45;;;;;;;33.03;8.52;;;9.10;99.90;;;;;;4954903;28;20178;-83
2021/01/17 11:24:11;;;;;;;30.98;8.77;;;9.30;99.90;;;;;;4957109;28;20272;-83
2021/01/17 11:26:37;;;;;;;32.53;9.00;;;9.60;99.90;;;;;;4939627;29;20190;-85
2021/01/17 11:29:05;;;;;;;29.65;7.35;;;9.90;99.90;;;;;;4939446;29;20222;-84
2021/01/17 11:31:31;;;;;;;32.00;8.32;;;10.40;99.90;;;;;;4926996;29;20198;-84
2021/01/17 11:33:57;;;;;;;28.83;7.50;;;10.90;99.90;;;;;;4952324;29;20191;-84
2021/01/17 11:36:26;;;;;;;27.65;7.30;;;11.60;99.90;;;;;;4952622;29;20202;-84
2021/01/17 11:38:56;;;;;;;21.35;7.20;;;12.10;99.90;;;;;;4949266;28;20197;-84
2021/01/17 11:41:24;;;;;;;25.65;6.97;;;13.00;99.90;;;;;;4955644;29;20238;-83
2021/01/17 11:43:52;;;;;;;27.73;7.30;;;15.60;99.90;;;;;;4953450;28;20229;-85
2021/01/17 11:46:18;;;;;;;27.35;6.68;;;18.20;99.90;;;;;;4978666;28;20174;-84
2021/01/17 11:48:44;;;;;;;26.05;6.22;;;19.60;99.90;;;;;;4996503;28;20216;-85
2021/01/17 11:51:11;;;;;;;23.40;6.95;;;20.60;99.90;;;;;;4979192;28;20184;-84
2021/01/17 11:53:38;;;;;;;25.73;7.35;;;19.60;99.90;;;;;;4978668;28;20205;-84
2021/01/17 11:56:04;;;;;;;24.17;6.18;;;18.00;99.90;;;;;;4962691;28;20204;-86
2021/01/17 11:58:40;;;;;;;30.42;6.78;;;16.40;99.90;;;;;;4978575;28;20182;-85
2021/01/17 12:01:06;;;;;;;24.98;6.22;;;15.10;99.90;;;;;;4996103;28;20264;-84
2021/01/17 12:03:43;;;;;;;21.35;6.13;;;14.10;99.90;;;;;;4980146;28;20232;-84
2021/01/17 12:06:19;;;;;;;31.17;6.53;;;13.20;99.90;;;;;;4980761;28;20534;-84
2021/01/17 12:08:53;;;;;;;31.98;6.43;;;12.50;99.90;;;;;;4996276;28;20256;-85
2021/01/17 12:11:46;;;;;;;30.85;6.07;;;12.10;99.90;;;;;;4979041;28;20189;-84
2021/01/17 12:14:19;;;;;;;25.90;6.63;;;11.80;99.90;;;;;;4995629;28;20216;-86
2021/01/17 12:16:55;;;;;;;25.35;6.22;;;11.60;99.90;;;;;;4978207;28;20181;-84
2021/01/17 12:19:22;;;;;;;32.63;7.38;;;11.40;99.90;;;;;;4979611;28;20185;-82
2021/01/17 12:21:50;;;;;;;29.05;6.35;;;10.90;99.90;;;;;;4991758;28;20181;-81
2021/01/17 12:24:16;;;;;;;17.33;6.47;;;10.50;99.90;;;;;;4990801;28;20189;-83
2021/01/17 12:26:44;;;;;;;22.73;5.93;;;10.50;99.90;;;;;;5005060;28;20188;-86
2021/01/17 12:29:10;;;;;;;27.60;6.50;;;10.70;99.90;;;;;;4979824;28;20205;-84
2021/01/17 12:31:37;;;;;;;24.10;6.03;;;10.50;99.90;;;;;;4978640;28;20592;-83
2021/01/17 12:34:04;;;;;;;24.05;6.60;;;10.50;99.90;;;;;;4992957;28;20232;-83
2021/01/17 12:36:31;;;;;;;37.55;6.78;;;10.70;99.90;;;;;;4963029;28;20652;-83
2021/01/17 12:38:58;;;;;;;33.70;6.88;;;11.20;99.90;;;;;;4952195;28;20263;-84
2021/01/17 12:41:31;;;;;;;27.90;6.35;;;11.60;99.90;;;;;;4962299;28;20182;-83
2021/01/17 12:43:57;;;;;;;26.75;6.53;;;11.70;99.90;;;;;;4978167;28;20598;-83
2021/01/17 12:46:24;;;;;;;19.63;6.20;;;11.50;99.90;;;;;;5007266;28;20192;-82
2021/01/17 12:48:49;;;;;;;26.40;6.55;;;11.10;99.90;;;;;;4978003;28;20300;-82
2021/01/17 12:51:16;;;;;;;25.85;5.47;;;10.70;99.90;;;;;;4961190;28;20643;-82
2021/01/17 12:53:45;;;;;;;32.38;6.78;;;10.80;99.90;;;;;;4960635;28;20598;-82
2021/01/17 12:56:11;;;;;;;36.35;5.80;;;11.10;99.90;;;;;;4977196;28;20182;-83
2021/01/17 12:58:38;;;;;;;35.63;6.97;;;11.80;99.90;;;;;;4995090;28;20181;-83